Time;durP1;ratioP1;P1;durP2;ratioP2;P2;SDS_P1;SDS_P2;PMS_P1;PMS_P2;Temp;Humidity;BMP_temperature;BMP_pressure;BME280_temperature;BME280_humidity;BME280_pressure;Samples;Min_cycle;Max_cycle;Signal;HPM_P1;HPM_P2
2023/02/24 00:01:58;;;;;;;9.82;2.65;;;3.90;99.90;;;;;;7373340;19;20818;-62
2023/02/24 00:04:26;;;;;;;9.60;2.45;;;4.00;99.90;;;;;;7371093;19;20492;-62
2023/02/24 00:06:52;;;;;;;6.85;2.20;;;4.00;99.90;;;;;;7369856;19;20651;-62
2023/02/24 00:09:22;;;;;;;6.07;1.92;;;3.90;99.90;;;;;;7368079;19;20027;-62
2023/02/24 00:11:53;;;;;;;12.77;2.30;;;3.90;99.90;;;;;;7369019;19;20027;-62
2023/02/24 00:14:20;;;;;;;11.40;2.30;;;3.90;99.90;;;;;;7375190;19;20035;-62
2023/02/24 00:16:47;;;;;;;8.43;2.30;;;3.90;99.90;;;;;;7377269;19;20023;-63
2023/02/24 00:19:17;;;;;;;7.13;2.50;;;3.90;99.90;;;;;;7378527;19;20070;-62
2023/02/24 00:21:44;;;;;;;8.80;2.42;;;3.90;99.90;;;;;;7379798;19;20015;-63
2023/02/24 00:24:12;;;;;;;13.73;2.83;;;3.90;99.90;;;;;;7377303;19;20903;-63
2023/02/24 00:26:39;;;;;;;10.23;2.67;;;3.90;99.90;;;;;;7378147;19;20035;-63
2023/02/24 00:29:09;;;;;;;7.43;2.50;;;3.90;99.90;;;;;;7377191;19;20019;-63
2023/02/24 00:31:38;;;;;;;9.52;2.75;;;4.00;99.90;;;;;;7378165;19;20513;-63
2023/02/24 00:34:05;;;;;;;12.07;2.80;;;3.90;99.90;;;;;;7374842;19;20022;-63
2023/02/24 00:36:32;;;;;;;9.10;3.03;;;3.80;99.90;;;;;;7377221;19;20021;-63
2023/02/24 00:39:07;;;;;;;11.70;2.97;;;3.80;99.90;;;;;;7377981;19;20018;-63
2023/02/24 00:41:36;;;;;;;10.00;2.85;;;3.80;99.90;;;;;;7377485;19;20022;-63
2023/02/24 00:44:06;;;;;;;9.63;2.63;;;3.70;99.90;;;;;;7375370;19;20015;-63
2023/02/24 00:46:36;;;;;;;9.07;2.70;;;3.70;99.90;;;;;;7376964;19;20026;-63
2023/02/24 00:49:04;;;;;;;8.40;2.63;;;3.60;99.90;;;;;;7378937;19;20025;-63
2023/02/24 00:51:35;;;;;;;14.52;2.85;;;3.50;99.90;;;;;;7376744;19;20019;-63
2023/02/24 00:54:02;;;;;;;10.80;3.20;;;3.40;99.90;;;;;;7371894;19;20098;-64
2023/02/24 00:56:33;;;;;;;10.50;2.50;;;3.30;99.90;;;;;;7376124;19;20022;-64
2023/02/24 00:59:01;;;;;;;9.57;3.00;;;3.20;99.90;;;;;;7373619;19;20078;-64
2023/02/24 01:01:32;;;;;;;12.25;3.28;;;3.10;99.90;;;;;;7374416;19;20019;-63
2023/02/24 01:04:05;;;;;;;12.45;3.42;;;3.00;99.90;;;;;;7370478;19;20022;-63
2023/02/24 01:06:33;;;;;;;9.23;2.90;;;3.00;99.90;;;;;;7376079;19;20022;-64
2023/02/24 01:08:59;;;;;;;7.82;3.03;;;2.90;99.90;;;;;;7374265;19;20018;-64
2023/02/24 01:14:23;;;;;;;12.55;3.47;;;2.70;99.90;;;;;;7375306;19;20027;-64
2023/02/24 01:16:50;;;;;;;8.63;2.88;;;2.70;99.90;;;;;;7377188;19;20029;-66
2023/02/24 01:19:21;;;;;;;8.23;2.75;;;2.50;99.90;;;;;;7376196;19;20544;-64
2023/02/24 01:21:53;;;;;;;8.52;3.10;;;2.50;99.90;;;;;;7375481;19;20019;-65
2023/02/24 01:24:22;;;;;;;11.05;4.00;;;2.50;99.90;;;;;;7374681;19;20014;-64
2023/02/24 01:26:48;;;;;;;15.15;3.40;;;2.40;99.90;;;;;;7374859;19;20117;-65
2023/02/24 01:29:15;;;;;;;10.95;3.28;;;2.30;99.90;;;;;;7376381;19;21410;-64
2023/02/24 01:31:41;;;;;;;12.25;4.07;;;2.30;99.90;;;;;;7375781;19;20825;-64
2023/02/24 01:34:09;;;;;;;9.93;2.53;;;2.30;99.90;;;;;;7372746;19;20030;-64
2023/02/24 01:36:40;;;;;;;10.05;3.25;;;2.30;99.90;;;;;;7376424;19;20501;-64
2023/02/24 01:39:18;;;;;;;;;;;2.30;99.90;;;;;;7377902;19;20477;-64
2023/02/24 01:41:49;;;;;;;6.25;2.67;;;2.30;99.90;;;;;;7375844;19;19990;-64
2023/02/24 01:44:16;;;;;;;9.18;3.13;;;2.30;99.90;;;;;;7372143;19;20058;-64
2023/02/24 01:46:45;;;;;;;12.30;3.30;;;2.40;99.90;;;;;;7374480;19;20018;-63
2023/02/24 01:49:20;;;;;;;10.95;2.40;;;2.40;99.90;;;;;;7372214;19;20019;-64
2023/02/24 01:52:01;;;;;;;8.70;2.15;;;2.50;99.90;;;;;;7373366;19;20022;-64
2023/02/24 01:54:34;;;;;;;10.05;2.70;;;2.40;99.90;;;;;;7365951;19;20611;-64
2023/02/24 01:57:04;;;;;;;9.95;2.67;;;2.50;99.90;;;;;;7371356;19;20022;-64
2023/02/24 01:59:34;;;;;;;11.45;2.53;;;2.60;99.90;;;;;;7375140;19;20035;-63
2023/02/24 02:02:05;;;;;;;7.70;2.35;;;2.60;99.90;;;;;;7372975;19;20039;-64
2023/02/24 02:04:56;;;;;;;10.43;2.50;;;2.60;99.90;;;;;;7371800;19;20042;-64
2023/02/24 02:07:27;;;;;;;9.48;2.38;;;2.70;99.90;;;;;;7369959;19;20026;-63
2023/02/24 02:10:02;;;;;;;7.40;2.00;;;2.80;99.90;;;;;;7375136;19;20015;-64
2023/02/24 02:12:35;;;;;;;7.28;2.45;;;2.80;99.90;;;;;;7374767;19;20019;-64
2023/02/24 02:15:04;;;;;;;9.98;2.50;;;2.80;99.90;;;;;;7374261;19;20086;-64
2023/02/24 02:17:50;;;;;;;7.47;1.60;;;2.80;99.90;;;;;;7376191;19;20721;-63
2023/02/24 02:20:52;;;;;;;6.97;2.40;;;2.80;99.90;;;;;;7373533;19;20026;-63
2023/02/24 02:23:31;;;;;;;8.13;2.42;;;2.80;99.90;;;;;;7367329;19;20779;-64
2023/02/24 02:26:22;;;;;;;8.48;1.80;;;2.80;99.90;;;;;;7367808;19;20397;-64
2023/02/24 02:29:04;;;;;;;10.60;2.30;;;2.80;99.90;;;;;;7372014;19;20027;-63
2023/02/24 02:32:02;;;;;;;10.27;2.25;;;2.90;99.90;;;;;;7371319;19;20364;-63
2023/02/24 02:34:54;;;;;;;7.93;2.58;;;2.90;99.90;;;;;;7373235;19;20828;-63
2023/02/24 02:37:32;;;;;;;11.73;2.15;;;2.90;99.90;;;;;;7371426;19;20022;-63
2023/02/24 02:40:16;;;;;;;7.50;1.92;;;2.90;99.90;;;;;;7370233;19;20360;-63
2023/02/24 02:42:49;;;;;;;7.03;1.98;;;2.80;99.90;;;;;;7374970;19;20082;-63
2023/02/24 02:49:31;;;;;;;9.27;2.28;;;2.70;99.90;;;;;;7351659;19;20453;-65
2023/02/24 02:52:06;;;;;;;8.30;1.90;;;2.60;99.90;;;;;;7353171;19;20097;-65
2023/02/24 02:54:49;;;;;;;12.10;2.38;;;2.60;99.90;;;;;;7375993;19;20285;-64
2023/02/24 02:57:29;;;;;;;6.30;1.60;;;2.70;99.90;;;;;;7377383;19;20495;-64
2023/02/24 03:00:12;;;;;;;10.13;2.30;;;2.70;99.90;;;;;;7376305;19;20029;-63
2023/02/24 03:02:45;;;;;;;6.03;1.98;;;2.80;99.90;;;;;;7377628;19;20029;-64
2023/02/24 03:05:19;;;;;;;5.22;1.98;;;2.80;99.90;;;;;;7377179;19;20933;-64
2023/02/24 03:07:51;;;;;;;8.02;2.38;;;2.80;99.90;;;;;;7370864;19;20802;-64
2023/02/24 03:10:23;;;;;;;4.80;1.80;;;2.90;99.90;;;;;;7376046;19;20026;-65
2023/02/24 03:12:52;;;;;;;;;;;2.90;99.90;;;;;;7375958;19;20026;-65
2023/02/24 03:15:22;;;;;;;6.90;1.60;;;2.90;99.90;;;;;;7373573;19;19934;-64
2023/02/24 03:18:00;;;;;;;13.45;2.10;;;2.90;99.90;;;;;;7374526;19;20014;-65
2023/02/24 03:20:34;;;;;;;5.80;1.60;;;3.00;99.90;;;;;;7373171;19;20050;-64
2023/02/24 03:23:06;;;;;;;;;;;3.00;99.90;;;;;;7377420;19;20018;-65
2023/02/24 03:25:45;;;;;;;;;;;3.00;99.90;;;;;;7374068;19;20255;-63
2023/02/24 03:28:21;;;;;;;6.53;1.60;;;3.00;99.90;;;;;;7372465;19;19930;-63
2023/02/24 03:31:05;;;;;;;7.03;1.63;;;3.10;99.90;;;;;;7377323;19;20018;-66
2023/02/24 03:33:56;;;;;;;11.50;2.33;;;3.10;99.90;;;;;;7377320;19;20018;-64
2023/02/24 03:36:23;;;;;;;6.75;1.60;;;3.10;99.90;;;;;;7378088;19;20026;-64
2023/02/24 03:38:57;;;;;;;7.28;1.63;;;3.10;99.90;;;;;;7379455;19;20035;-64
2023/02/24 03:41:33;;;;;;;8.13;2.08;;;3.10;99.90;;;;;;7373754;19;20018;-64
2023/02/24 03:44:00;;;;;;;14.65;2.17;;;3.10;99.90;;;;;;7374314;19;20497;-63
2023/02/24 03:46:28;;;;;;;12.20;2.40;;;3.10;99.90;;;;;;7372120;19;20010;-64
2023/02/24 03:49:01;;;;;;;12.88;2.63;;;3.10;99.90;;;;;;7380249;19;20018;-64
2023/02/24 03:51:30;;;;;;;11.38;2.30;;;3.10;99.90;;;;;;7375986;19;20699;-64
2023/02/24 03:54:41;;;;;;;9.43;1.85;;;3.10;99.90;;;;;;7382447;19;20046;-64
2023/02/24 03:57:23;;;;;;;11.25;2.20;;;3.10;99.90;;;;;;7383206;19;20078;-64
2023/02/24 04:00:24;;;;;;;6.97;1.48;;;3.10;99.90;;;;;;7383707;19;20023;-65
2023/02/24 04:03:16;;;;;;;8.27;1.63;;;3.10;99.90;;;;;;7385701;19;20383;-63
2023/02/24 04:06:00;;;;;;;15.43;2.25;;;3.10;99.90;;;;;;7381282;19;20769;-63
2023/02/24 04:08:29;;;;;;;9.20;2.03;;;3.10;99.90;;;;;;7381355;19;20055;-64
2023/02/24 04:11:09;;;;;;;6.40;1.70;;;3.10;99.90;;;;;;7381831;19;20031;-63
2023/02/24 04:14:05;;;;;;;10.10;1.73;;;3.20;99.90;;;;;;7383373;19;20022;-63
2023/02/24 04:16:56;;;;;;;5.80;1.80;;;3.10;99.90;;;;;;7380856;19;20015;-63
2023/02/24 04:19:26;;;;;;;10.32;1.65;;;3.20;99.90;;;;;;7381727;19;20018;-63
2023/02/24 04:21:55;;;;;;;12.05;2.13;;;3.10;99.90;;;;;;7381287;19;20014;-63
2023/02/24 04:24:29;;;;;;;6.38;1.50;;;3.20;99.90;;;;;;7383113;19;20022;-63
2023/02/24 04:26:58;;;;;;;;;;;3.20;99.90;;;;;;7383331;19;20019;-63
2023/02/24 04:29:34;;;;;;;8.45;2.20;;;3.20;99.90;;;;;;7378930;19;19922;-63
2023/02/24 04:32:11;;;;;;;7.80;1.70;;;3.20;99.90;;;;;;7383441;19;20026;-63
2023/02/24 04:34:39;;;;;;;7.95;1.75;;;3.20;99.90;;;;;;7384661;19;20097;-63
2023/02/24 04:37:06;;;;;;;9.77;1.70;;;3.20;99.90;;;;;;7380220;19;20053;-64
2023/02/24 04:39:37;;;;;;;6.90;1.95;;;3.30;99.90;;;;;;7382136;19;20533;-64
2023/02/24 04:42:08;;;;;;;9.90;1.70;;;3.30;99.90;;;;;;7384425;19;20432;-65
2023/02/24 04:44:34;;;;;;;6.50;1.65;;;3.30;99.90;;;;;;7381819;19;20022;-64
2023/02/24 04:47:02;;;;;;;10.73;2.13;;;3.30;99.90;;;;;;7384576;19;20025;-64
2023/02/24 04:49:29;;;;;;;6.95;1.65;;;3.30;99.90;;;;;;7382405;19;20014;-65
2023/02/24 04:51:56;;;;;;;7.22;1.67;;;3.30;99.90;;;;;;7380907;19;20770;-65
2023/02/24 04:54:23;;;;;;;10.95;2.10;;;3.30;99.90;;;;;;7383911;19;20023;-64
2023/02/24 04:56:50;;;;;;;8.02;1.80;;;3.30;99.90;;;;;;7382614;19;20032;-64
2023/02/24 04:59:18;;;;;;;8.75;1.77;;;3.40;99.90;;;;;;7383611;19;20023;-65
2023/02/24 05:01:45;;;;;;;8.63;1.88;;;3.40;99.90;;;;;;7379211;19;20019;-65
2023/02/24 05:04:13;;;;;;;10.68;1.58;;;3.40;99.90;;;;;;7384045;19;20018;-65
2023/02/24 05:06:42;;;;;;;7.88;1.77;;;3.40;99.90;;;;;;7382005;19;20026;-64
2023/02/24 05:09:18;;;;;;;5.30;1.73;;;3.40;99.90;;;;;;7383178;19;20434;-64
2023/02/24 05:11:49;;;;;;;6.03;1.80;;;3.40;99.90;;;;;;7380048;19;20798;-64
2023/02/24 05:14:19;;;;;;;7.60;1.63;;;3.40;99.90;;;;;;7377608;19;20018;-64
2023/02/24 05:16:47;;;;;;;9.15;1.80;;;3.40;99.90;;;;;;7379739;19;20023;-63
2023/02/24 05:22:05;;;;;;;4.43;1.50;;;3.50;99.90;;;;;;7380255;19;20023;-64
2023/02/24 05:24:33;;;;;;;10.38;2.67;;;3.50;99.90;;;;;;7373136;19;20025;-64
2023/02/24 05:27:02;;;;;;;6.40;1.40;;;3.60;99.90;;;;;;7372323;19;20027;-64
2023/02/24 05:29:32;;;;;;;9.00;2.00;;;3.60;99.90;;;;;;7374323;19;20078;-64
2023/02/24 05:31:59;;;;;;;6.72;1.98;;;3.60;99.90;;;;;;7376689;19;20121;-63
2023/02/24 05:34:30;;;;;;;6.05;1.45;;;3.70;99.90;;;;;;7374845;19;20022;-64
2023/02/24 05:36:58;;;;;;;8.57;1.83;;;3.70;99.90;;;;;;7375250;19;20677;-63
2023/02/24 05:39:25;;;;;;;9.57;2.05;;;3.70;99.90;;;;;;7377561;19;20140;-64
2023/02/24 05:41:53;;;;;;;13.30;2.53;;;3.70;99.90;;;;;;7378015;19;20033;-64
2023/02/24 05:44:21;;;;;;;6.45;2.08;;;3.70;99.90;;;;;;7376285;19;20022;-64
2023/02/24 05:46:55;;;;;;;8.23;2.03;;;3.70;99.90;;;;;;7378027;19;20090;-64
2023/02/24 05:49:32;;;;;;;8.02;2.00;;;3.70;99.90;;;;;;7378538;19;20383;-64
2023/02/24 05:52:08;;;;;;;11.25;2.83;;;3.70;99.90;;;;;;7375789;19;20022;-63
2023/02/24 05:54:39;;;;;;;8.02;2.15;;;3.70;99.90;;;;;;7376552;19;20495;-63
2023/02/24 05:57:11;;;;;;;7.15;1.90;;;3.70;99.90;;;;;;7377147;19;20098;-64
2023/02/24 05:59:39;;;;;;;6.25;1.88;;;3.70;99.90;;;;;;7373994;19;20081;-64
2023/02/24 06:02:12;;;;;;;5.80;1.90;;;3.70;99.90;;;;;;7375681;19;20019;-65
2023/02/24 06:04:49;;;;;;;9.60;2.10;;;3.70;99.90;;;;;;7373393;19;20512;-63
2023/02/24 06:07:23;;;;;;;7.00;1.92;;;3.80;99.90;;;;;;7379653;19;20954;-64
2023/02/24 06:09:56;;;;;;;11.18;1.85;;;3.80;99.90;;;;;;7373641;19;20018;-64
2023/02/24 06:12:33;;;;;;;9.93;2.83;;;3.80;99.90;;;;;;7374651;19;21040;-65
2023/02/24 06:15:06;;;;;;;4.43;1.73;;;3.80;99.90;;;;;;7368194;19;20018;-64
2023/02/24 06:17:32;;;;;;;10.20;2.50;;;3.80;99.90;;;;;;7369888;19;20035;-65
2023/02/24 06:19:58;;;;;;;13.02;2.95;;;3.80;99.90;;;;;;7372362;19;20053;-64
2023/02/24 06:22:25;;;;;;;8.60;2.55;;;3.80;99.90;;;;;;7368454;19;20443;-65
2023/02/24 06:24:54;;;;;;;6.20;2.63;;;3.70;99.90;;;;;;7368279;19;20097;-65
2023/02/24 06:27:23;;;;;;;9.70;2.45;;;3.80;99.90;;;;;;7370822;19;20018;-65
2023/02/24 06:29:52;;;;;;;7.88;2.10;;;3.80;99.90;;;;;;7370406;19;20529;-65
2023/02/24 06:32:22;;;;;;;7.82;2.50;;;3.80;99.90;;;;;;7370391;19;20030;-65
2023/02/24 06:34:50;;;;;;;5.68;2.10;;;3.80;99.90;;;;;;7371987;19;20033;-65
2023/02/24 06:37:17;;;;;;;10.60;2.83;;;3.80;99.90;;;;;;7369626;19;20031;-62
2023/02/24 06:39:43;;;;;;;10.68;2.67;;;3.80;99.90;;;;;;7377250;19;20022;-63
2023/02/24 06:42:15;;;;;;;7.70;2.15;;;3.80;99.90;;;;;;7369330;19;20782;-62
2023/02/24 06:44:41;;;;;;;14.48;2.97;;;3.80;99.90;;;;;;7374715;19;20014;-63
2023/02/24 06:47:16;;;;;;;9.45;2.63;;;3.80;99.90;;;;;;7366195;19;20026;-64
2023/02/24 06:49:42;;;;;;;9.60;2.75;;;3.70;99.90;;;;;;7372660;19;20018;-61
2023/02/24 06:52:10;;;;;;;9.10;2.55;;;3.70;99.90;;;;;;7368681;19;20063;-61
2023/02/24 06:54:36;;;;;;;9.32;2.83;;;3.60;99.90;;;;;;7375822;19;20033;-63
2023/02/24 06:57:11;;;;;;;16.13;4.18;;;3.70;99.90;;;;;;7371944;19;20180;-61
2023/02/24 06:59:38;;;;;;;11.90;3.33;;;3.70;99.90;;;;;;7371544;19;20834;-61
2023/02/24 07:02:12;;;;;;;10.85;3.55;;;3.70;99.90;;;;;;7369792;19;20019;-61
2023/02/24 07:04:45;;;;;;;8.90;3.17;;;3.70;99.90;;;;;;7370487;19;20057;-61
2023/02/24 07:07:13;;;;;;;10.70;3.50;;;3.70;99.90;;;;;;7365442;19;20094;-63
2023/02/24 07:09:40;;;;;;;10.38;3.60;;;3.60;99.90;;;;;;7373585;19;20034;-63
2023/02/24 07:12:08;;;;;;;10.32;3.35;;;3.60;99.90;;;;;;7369203;19;20019;-63
2023/02/24 07:14:37;;;;;;;11.95;3.80;;;3.60;99.90;;;;;;7370531;19;20022;-62
2023/02/24 07:17:09;;;;;;;14.25;3.40;;;3.60;99.90;;;;;;7370991;19;20029;-64
2023/02/24 07:19:39;;;;;;;9.50;3.92;;;3.60;99.90;;;;;;7375031;19;20018;-64
2023/02/24 07:22:06;;;;;;;14.05;3.67;;;3.60;99.90;;;;;;7370180;19;20045;-62
2023/02/24 07:24:44;;;;;;;12.25;3.95;;;3.60;99.90;;;;;;7372790;19;20585;-64
2023/02/24 07:27:20;;;;;;;13.15;3.88;;;3.70;99.90;;;;;;7370546;19;20021;-62
2023/02/24 07:29:49;;;;;;;15.52;4.28;;;3.70;99.90;;;;;;7372463;19;20050;-63
2023/02/24 07:32:16;;;;;;;15.23;3.80;;;3.70;99.90;;;;;;7369751;19;20026;-63
2023/02/24 07:34:43;;;;;;;11.40;4.00;;;3.70;99.90;;;;;;7371727;19;20022;-61
2023/02/24 07:37:11;;;;;;;12.40;4.45;;;3.70;99.90;;;;;;7371300;19;20046;-62
2023/02/24 07:39:38;;;;;;;10.35;5.28;;;3.70;99.90;;;;;;7368048;19;20022;-63
2023/02/24 07:42:06;;;;;;;13.75;5.30;;;3.70;99.90;;;;;;7369931;19;20018;-63
2023/02/24 07:44:45;;;;;;;18.63;5.57;;;3.70;99.90;;;;;;7368072;19;20043;-63
2023/02/24 07:47:11;;;;;;;16.17;5.43;;;3.70;99.90;;;;;;7372610;19;20113;-63
2023/02/24 07:49:39;;;;;;;18.67;5.03;;;3.70;99.90;;;;;;7369194;19;20022;-62
2023/02/24 07:52:10;;;;;;;21.00;5.67;;;3.70;99.90;;;;;;7367834;19;20019;-63
2023/02/24 07:54:38;;;;;;;24.42;5.97;;;3.70;99.90;;;;;;7372727;19;20600;-63
2023/02/24 07:57:05;;;;;;;19.65;5.80;;;3.70;99.90;;;;;;7372153;19;20023;-63
2023/02/24 07:59:36;;;;;;;18.83;6.03;;;3.80;99.90;;;;;;7369863;19;20066;-64
2023/02/24 08:02:06;;;;;;;21.33;6.07;;;3.80;99.90;;;;;;7370694;19;20022;-63
2023/02/24 08:04:33;;;;;;;17.85;5.82;;;3.80;99.90;;;;;;7366917;19;20018;-63
2023/02/24 08:07:02;;;;;;;17.67;5.65;;;3.80;99.90;;;;;;7366417;19;20026;-63
2023/02/24 08:12:17;;;;;;;13.40;5.28;;;3.80;99.90;;;;;;7371172;19;20874;-63
2023/02/24 08:14:49;;;;;;;18.80;6.18;;;3.80;99.90;;;;;;7367976;19;20022;-62
2023/02/24 08:17:25;;;;;;;24.52;6.65;;;3.90;99.90;;;;;;7365334;19;20657;-62
2023/02/24 08:20:51;;;;;;;18.02;6.13;;;3.90;99.90;;;;;;7367589;19;20019;-63
2023/02/24 08:22:52;;;;;;;16.58;5.30;;;3.90;99.90;;;;;;7366894;19;20023;-63
2023/02/24 08:25:34;;;;;;;20.10;7.15;;;3.90;99.90;;;;;;7368972;19;20026;-63
2023/02/24 08:28:04;;;;;;;14.30;6.68;;;4.00;99.90;;;;;;7372185;19;20053;-62
2023/02/24 08:30:37;;;;;;;19.73;5.93;;;4.00;99.90;;;;;;7371227;19;20025;-63
2023/02/24 08:33:10;;;;;;;17.05;6.13;;;4.00;99.90;;;;;;7367883;19;20017;-62
2023/02/24 08:35:43;;;;;;;15.63;5.60;;;4.00;99.90;;;;;;7378126;19;20615;-62
2023/02/24 08:38:18;;;;;;;17.60;6.53;;;4.00;99.90;;;;;;7374797;19;20015;-62
2023/02/24 08:40:50;;;;;;;20.00;5.80;;;4.10;99.90;;;;;;7371377;19;20082;-62
2023/02/24 08:43:31;;;;;;;27.67;6.80;;;4.00;99.90;;;;;;7367860;19;20070;-62
2023/02/24 08:46:16;;;;;;;16.85;6.10;;;4.10;99.90;;;;;;7370761;19;20804;-63
2023/02/24 08:48:54;;;;;;;14.38;5.90;;;4.10;99.90;;;;;;7366223;19;20026;-62
2023/02/24 08:51:27;;;;;;;25.10;7.75;;;4.10;99.90;;;;;;7367930;19;20022;-63
2023/02/24 08:53:56;;;;;;;21.02;6.80;;;4.20;99.90;;;;;;7369572;19;20697;-62
2023/02/24 08:56:33;;;;;;;18.65;7.07;;;4.20;99.90;;;;;;7372834;19;20031;-62
2023/02/24 08:59:05;;;;;;;20.88;6.47;;;4.20;99.90;;;;;;7376413;19;20047;-62
2023/02/24 09:01:38;;;;;;;20.25;6.32;;;4.20;99.90;;;;;;7373959;19;20484;-62
2023/02/24 09:04:24;;;;;;;21.08;6.20;;;4.30;99.90;;;;;;7375325;19;20018;-63
2023/02/24 09:06:56;;;;;;;21.48;6.75;;;4.30;99.90;;;;;;7378175;19;20019;-63
2023/02/24 09:09:24;;;;;;;20.27;6.97;;;4.30;99.90;;;;;;7376306;19;20098;-63
2023/02/24 09:11:58;;;;;;;24.23;7.40;;;4.40;99.90;;;;;;7373888;19;20027;-63
2023/02/24 09:14:35;;;;;;;17.35;7.68;;;4.50;99.90;;;;;;7373986;19;20035;-63
2023/02/24 09:17:09;;;;;;;23.33;8.63;;;4.60;99.90;;;;;;7374966;19;20011;-62
2023/02/24 09:22:39;;;;;;;22.05;7.78;;;4.70;99.90;;;;;;7372851;19;20025;-61
2023/02/24 09:25:17;;;;;;;24.92;8.65;;;4.80;99.90;;;;;;7374695;19;20018;-61
2023/02/24 09:28:18;;;;;;;20.77;7.90;;;4.80;99.90;;;;;;7374671;19;20948;-61
2023/02/24 09:30:55;;;;;;;22.85;8.00;;;4.80;99.90;;;;;;7372466;19;20011;-61
2023/02/24 09:33:40;;;;;;;25.48;9.10;;;4.90;99.90;;;;;;7368282;19;20011;-62
2023/02/24 09:36:09;;;;;;;18.83;8.88;;;4.90;99.90;;;;;;7375377;19;20015;-62
2023/02/24 09:41:52;;;;;;;17.92;8.57;;;5.10;99.90;;;;;;7375921;19;20050;-62
2023/02/24 09:44:32;;;;;;;25.23;8.88;;;5.00;99.90;;;;;;7367607;19;20018;-62
2023/02/24 09:47:39;;;;;;;21.77;7.97;;;5.10;99.90;;;;;;7371045;19;20381;-61
2023/02/24 09:50:23;;;;;;;20.77;9.25;;;5.10;99.90;;;;;;7371583;19;20866;-62
2023/02/24 09:52:59;;;;;;;16.55;7.70;;;5.10;99.90;;;;;;7369355;19;20058;-62
2023/02/24 09:55:44;;;;;;;17.70;8.15;;;5.20;99.90;;;;;;7349535;19;20584;-61
2023/02/24 09:58:36;;;;;;;20.55;9.32;;;5.20;99.90;;;;;;7369930;19;20025;-62
2023/02/24 10:01:41;;;;;;;24.50;8.63;;;5.20;99.90;;;;;;7367274;19;20026;-62
2023/02/24 10:04:34;;;;;;;18.27;8.63;;;5.20;99.90;;;;;;7369902;19;20350;-61
2023/02/24 10:07:04;;;;;;;17.48;9.45;;;5.30;99.90;;;;;;7370683;19;20049;-61
2023/02/24 10:10:17;;;;;;;16.83;9.23;;;5.40;99.90;;;;;;7370140;19;20023;-61
2023/02/24 10:13:12;;;;;;;26.00;8.55;;;5.40;99.90;;;;;;7366474;19;20023;-61
2023/02/24 10:15:57;;;;;;;20.35;8.80;;;5.40;99.90;;;;;;7365317;19;20066;-62
2023/02/24 10:18:59;;;;;;;17.10;9.25;;;5.40;99.90;;;;;;7369744;19;20073;-63
2023/02/24 10:21:29;;;;;;;23.27;8.57;;;5.50;99.90;;;;;;7370038;19;20027;-61
2023/02/24 10:24:22;;;;;;;17.95;8.55;;;5.60;99.90;;;;;;7370810;19;20015;-61
2023/02/24 10:27:01;;;;;;;14.52;8.27;;;5.60;99.90;;;;;;7371911;19;20023;-62
2023/02/24 10:29:54;;;;;;;13.05;7.85;;;5.70;99.90;;;;;;7368628;19;20030;-62
2023/02/24 10:32:58;;;;;;;15.32;8.68;;;5.70;99.90;;;;;;7371446;19;20067;-62
2023/02/24 10:35:32;;;;;;;12.15;7.28;;;5.70;99.90;;;;;;7366353;19;20027;-63
2023/02/24 10:38:04;;;;;;;12.30;7.28;;;5.80;99.90;;;;;;7362366;19;20026;-62
2023/02/24 10:40:43;;;;;;;19.30;9.23;;;5.80;99.90;;;;;;7365833;19;20019;-62
2023/02/24 10:43:16;;;;;;;16.38;9.45;;;5.80;99.90;;;;;;7369460;19;20911;-62
2023/02/24 10:45:44;;;;;;;15.02;7.95;;;5.90;99.90;;;;;;7358770;19;20645;-62
2023/02/24 10:48:24;;;;;;;15.75;7.03;;;6.10;99.90;;;;;;7366802;19;20050;-62
2023/02/24 10:51:07;;;;;;;16.35;7.43;;;6.20;99.90;;;;;;7368926;19;20420;-62
2023/02/24 10:53:35;;;;;;;14.32;6.15;;;6.30;99.90;;;;;;7370335;19;20029;-61
2023/02/24 10:56:26;;;;;;;13.68;6.72;;;6.70;99.90;;;;;;7369106;19;20608;-62
2023/02/24 10:59:39;;;;;;;18.27;6.38;;;7.70;99.90;;;;;;7373940;19;20019;-62
2023/02/24 11:02:31;;;;;;;12.48;4.72;;;8.20;99.90;;;;;;7367122;19;20022;-62
2023/02/24 11:05:15;;;;;;;16.40;5.00;;;7.80;99.90;;;;;;7364172;19;20458;-63
2023/02/24 11:07:52;;;;;;;14.82;5.70;;;7.80;99.90;;;;;;7368796;19;20404;-62
2023/02/24 11:10:25;;;;;;;18.08;5.80;;;7.90;99.90;;;;;;7369247;19;20057;-62
2023/02/24 11:18:33;;;;;;;31.77;6.18;;;8.70;99.90;;;;;;7372979;19;20022;-62
2023/02/24 11:21:01;;;;;;;23.98;5.20;;;9.00;99.90;;;;;;7369976;19;20022;-62
2023/02/24 11:23:33;;;;;;;22.70;4.93;;;8.90;99.90;;;;;;7366855;19;20022;-63
2023/02/24 11:26:28;;;;;;;27.42;5.40;;;9.30;99.90;;;;;;7367142;19;20859;-63
2023/02/24 11:29:22;;;;;;;24.83;5.55;;;9.20;99.90;;;;;;7366145;19;20060;-64
2023/02/24 11:32:07;;;;;;;26.23;5.55;;;8.90;99.90;;;;;;7371195;19;20023;-64
2023/02/24 11:34:48;;;;;;;27.98;5.25;;;8.90;99.90;;;;;;7365923;19;20027;-64
2023/02/24 11:37:33;;;;;;;28.15;5.90;;;8.70;99.90;;;;;;7364886;19;20018;-65
2023/02/24 11:40:42;;;;;;;24.98;6.20;;;8.60;99.90;;;;;;7364985;19;20091;-63
2023/02/24 11:43:17;;;;;;;23.35;5.32;;;8.40;99.90;;;;;;7363825;19;20804;-62
2023/02/24 11:46:09;;;;;;;24.83;4.78;;;7.90;99.90;;;;;;7359710;19;20022;-62
2023/02/24 11:48:48;;;;;;;21.52;4.57;;;7.70;99.90;;;;;;7365029;19;20098;-62
2023/02/24 11:51:19;;;;;;;19.20;3.97;;;7.60;99.90;;;;;;7364966;19;20407;-62
2023/02/24 11:54:04;;;;;;;21.10;3.58;;;7.60;99.90;;;;;;7365748;19;20022;-62
2023/02/24 11:56:48;;;;;;;23.80;4.45;;;7.80;99.90;;;;;;7364868;19;20038;-62
2023/02/24 11:59:38;;;;;;;24.63;5.50;;;7.90;99.90;;;;;;7363861;19;20018;-62
2023/02/24 12:02:38;;;;;;;23.95;6.03;;;8.00;99.90;;;;;;7365068;19;20023;-62
2023/02/24 12:05:17;;;;;;;23.55;6.53;;;8.00;99.90;;;;;;7366035;19;20018;-62
2023/02/24 12:08:04;;;;;;;23.20;5.80;;;7.80;99.90;;;;;;7366074;19;20067;-62
2023/02/24 12:10:34;;;;;;;26.60;4.88;;;7.60;99.90;;;;;;7374003;19;20772;-62
2023/02/24 12:13:12;;;;;;;28.60;6.63;;;7.60;99.90;;;;;;7375024;19;20014;-62
2023/02/24 12:15:54;;;;;;;44.40;8.93;;;8.00;99.90;;;;;;7375839;19;20055;-62
2023/02/24 12:18:26;;;;;;;30.35;6.13;;;8.30;99.90;;;;;;7377295;19;20775;-62
2023/02/24 12:21:10;;;;;;;26.70;6.53;;;8.50;99.90;;;;;;7374661;19;20067;-62
2023/02/24 12:23:38;;;;;;;;;;;8.50;99.90;;;;;;7378826;19;20019;-62
2023/02/24 12:26:27;;;;;;;26.35;5.65;;;8.60;99.90;;;;;;7370758;19;19934;-62
2023/02/24 12:29:33;;;;;;;29.75;6.68;;;8.50;99.90;;;;;;7380314;19;20033;-62
2023/02/24 12:32:41;;;;;;;28.40;5.55;;;8.30;99.90;;;;;;7374015;19;20113;-61
2023/02/24 12:35:23;;;;;;;25.42;5.78;;;8.20;99.90;;;;;;7375668;19;20019;-62
2023/02/24 12:38:09;;;;;;;24.33;4.65;;;8.90;99.90;;;;;;7374574;19;20041;-62
2023/02/24 12:40:56;;;;;;;28.70;5.05;;;9.40;99.90;;;;;;7378216;19;20018;-63
2023/02/24 12:43:51;;;;;;;22.90;5.40;;;9.40;99.90;;;;;;7376175;19;20019;-62
2023/02/24 12:46:26;;;;;;;25.70;5.05;;;9.10;99.90;;;;;;7372282;19;20791;-63
2023/02/24 12:49:10;;;;;;;22.73;4.20;;;9.00;99.90;;;;;;7376529;19;20018;-63
2023/02/24 12:52:10;;;;;;;11.63;2.65;;;8.30;99.90;;;;;;7375594;19;20042;-63
2023/02/24 12:54:57;;;;;;;8.18;1.77;;;7.30;99.90;;;;;;7376664;19;20030;-63
2023/02/24 12:57:35;;;;;;;8.18;1.83;;;7.10;99.90;;;;;;7374725;19;20030;-62
2023/02/24 13:00:15;;;;;;;9.15;2.40;;;6.90;99.90;;;;;;7374684;19;20118;-62
2023/02/24 13:02:56;;;;;;;10.20;2.25;;;7.00;99.90;;;;;;7377848;19;20030;-63
2023/02/24 13:05:40;;;;;;;13.38;2.72;;;7.60;99.90;;;;;;7369361;19;20112;-63
2023/02/24 13:08:21;;;;;;;14.57;2.60;;;8.00;99.90;;;;;;7373133;19;20098;-64
2023/02/24 13:11:24;;;;;;;16.40;3.53;;;9.50;99.90;;;;;;7371630;19;20022;-63
2023/02/24 13:14:05;;;;;;;;;;;9.90;99.90;;;;;;7373204;19;20295;-63
2023/02/24 13:16:34;;;;;;;23.83;4.03;;;9.90;99.90;;;;;;7373944;19;19982;-64
2023/02/24 13:19:25;;;;;;;20.80;4.55;;;10.10;99.90;;;;;;7373894;19;20042;-64
2023/02/24 13:21:57;;;;;;;21.50;4.68;;;9.90;99.90;;;;;;7369581;19;20023;-63
2023/02/24 13:24:25;;;;;;;22.27;4.50;;;9.70;99.90;;;;;;7369405;19;20509;-63
2023/02/24 13:27:02;;;;;;;19.27;4.47;;;9.60;99.90;;;;;;7371975;19;20531;-64
2023/02/24 13:29:45;;;;;;;18.63;3.70;;;10.50;99.90;;;;;;7373877;19;20707;-63
2023/02/24 13:32:33;;;;;;;21.40;4.15;;;10.40;99.90;;;;;;7371010;19;20026;-63
2023/02/24 13:35:14;;;;;;;17.85;4.10;;;11.10;99.90;;;;;;7373887;19;20822;-64
2023/02/24 13:37:44;;;;;;;23.17;4.57;;;11.00;99.90;;;;;;7373630;19;20019;-64
2023/02/24 13:40:25;;;;;;;21.88;4.20;;;11.20;99.90;;;;;;7371933;19;20374;-64
2023/02/24 13:42:58;;;;;;;18.67;3.78;;;11.10;99.90;;;;;;7374609;19;20018;-63
2023/02/24 13:45:28;;;;;;;21.75;5.00;;;10.70;99.90;;;;;;7370727;19;20611;-64
2023/02/24 13:48:17;;;;;;;21.35;6.57;;;11.30;99.90;;;;;;7370955;19;20041;-64
2023/02/24 13:51:12;;;;;;;19.77;4.30;;;10.70;99.90;;;;;;7365291;19;20687;-65
2023/02/24 13:54:11;;;;;;;18.27;3.92;;;9.50;99.90;;;;;;7364179;19;20026;-63
2023/02/24 13:56:55;;;;;;;16.83;3.92;;;8.70;99.90;;;;;;7372673;19;20041;-63
2023/02/24 13:59:31;;;;;;;18.70;5.32;;;8.40;99.90;;;;;;7371197;19;20026;-63
2023/02/24 14:02:01;;;;;;;4.63;1.60;;;9.50;99.90;;;;;;7369240;19;21842;-63
2023/02/24 14:04:34;;;;;;;5.47;1.92;;;10.30;99.90;;;;;;7368763;19;20018;-63